Time;durP1;ratioP1;P1;durP2;ratioP2;P2;SDS_P1;SDS_P2;PMS_P1;PMS_P2;Temp;Humidity;BMP_temperature;BMP_pressure;BME280_temperature;BME280_humidity;BME280_pressure;Samples;Min_cycle;Max_cycle;Signal;HPM_P1;HPM_P2
2021/01/28 00:01:18;;;;;;;6.93;4.38;;;;;;;;;;5033043;28;20224;-83
2021/01/28 00:03:44;;;;;;;6.20;3.70;;;;;;;;;;5041833;28;20174;-83
2021/01/28 00:06:10;;;;;;;8.75;4.00;;;;;;;;;;5035686;28;20529;-83
2021/01/28 00:08:36;;;;;;;9.80;4.15;;;;;;;;;;5032552;28;20680;-83
2021/01/28 00:11:02;;;;;;;4.65;3.13;;;;;;;;;;5039562;28;20762;-82
2021/01/28 00:13:28;;;;;;;7.97;3.75;;;;;;;;;;5053674;28;20201;-82
2021/01/28 00:15:54;;;;;;;6.97;3.45;;;;;;;;;;5039528;28;20194;-80
2021/01/28 00:18:20;;;;;;;8.23;3.75;;;;;;;;;;5037435;28;20236;-81
2021/01/28 00:20:47;;;;;;;5.82;3.42;;;;;;;;;;5040596;28;20182;-82
2021/01/28 00:23:14;;;;;;;8.95;3.75;;;;;;;;;;5029184;28;20241;-81
2021/01/28 00:25:40;;;;;;;8.80;3.33;;;;;;;;;;5026194;28;20662;-82
2021/01/28 00:28:08;;;;;;;4.13;3.10;;;;;;;;;;5033434;28;20190;-81
2021/01/28 00:30:36;;;;;;;5.63;2.92;;;;;;;;;;5039361;28;20178;-80
2021/01/28 00:33:02;;;;;;;6.25;3.17;;;;;;;;;;5035271;28;20233;-80
2021/01/28 00:35:31;;;;;;;4.70;2.70;;;;;;;;;;5031404;28;20194;-82
2021/01/28 00:37:58;;;;;;;6.53;3.08;;;;;;;;;;5028726;28;20205;-81
2021/01/28 00:40:25;;;;;;;4.68;3.28;;;;;;;;;;5025242;28;20182;-81
2021/01/28 00:42:51;;;;;;;5.80;2.83;;;;;;;;;;5022567;28;20181;-81
2021/01/28 00:45:18;;;;;;;9.85;3.75;;;;;;;;;;5033429;28;20645;-83
2021/01/28 00:47:44;;;;;;;5.35;2.80;;;;;;;;;;5017572;28;20189;-81
2021/01/28 00:50:11;;;;;;;4.10;2.60;;;;;;;;;;5012290;28;20253;-81
2021/01/28 00:52:41;;;;;;;3.10;2.22;;;;;;;;;;5011158;28;20697;-82
2021/01/28 00:55:08;;;;;;;3.20;2.40;;;;;;;;;;5028947;28;20215;-83
2021/01/28 00:57:34;;;;;;;3.55;2.60;;;;;;;;;;5020953;28;20667;-83
2021/01/28 01:00:00;;;;;;;4.05;2.40;;;;;;;;;;5034794;28;20277;-82
2021/01/28 01:02:26;;;;;;;3.47;2.38;;;;;;;;;;5032595;28;20185;-83
2021/01/28 01:04:52;;;;;;;2.80;2.00;;;;;;;;;;5028589;28;20216;-83
2021/01/28 01:07:18;;;;;;;4.13;2.30;;;;;;;;;;5025983;28;20500;-83
2021/01/28 01:09:44;;;;;;;3.38;2.50;;;;;;;;;;5038469;28;20185;-82
2021/01/28 01:12:10;;;;;;;3.10;2.30;;;;;;;;;;5034721;28;20272;-84
2021/01/28 01:14:36;;;;;;;2.20;1.73;;;;;;;;;;5022814;28;20428;-82
2021/01/28 01:17:02;;;;;;;4.28;2.10;;;;;;;;;;5021849;28;20444;-82
2021/01/28 01:19:28;;;;;;;3.80;2.20;;;;;;;;;;5035684;28;20214;-82
2021/01/28 01:21:54;;;;;;;3.40;2.05;;;;;;;;;;5034033;28;20266;-83
2021/01/28 01:24:20;;;;;;;2.17;1.80;;;;;;;;;;5033124;28;20569;-82
2021/01/28 01:26:47;;;;;;;5.15;1.92;;;;;;;;;;5034006;28;20500;-81
2021/01/28 01:29:13;;;;;;;3.00;1.67;;;;;;;;;;5010140;28;20202;-81
2021/01/28 01:31:39;;;;;;;1.50;1.40;;;;;;;;;;5027966;28;20230;-81
2021/01/28 01:34:05;;;;;;;4.13;1.47;;;;;;;;;;5045695;28;20420;-81
2021/01/28 01:36:31;;;;;;;2.10;1.33;;;;;;;;;;5035742;28;20426;-82
2021/01/28 01:38:57;;;;;;;1.50;1.23;;;;;;;;;;5049756;28;20240;-82
2021/01/28 01:41:28;;;;;;;2.08;1.60;;;;;;;;;;5031078;28;20435;-82
2021/01/28 01:43:58;;;;;;;1.73;1.30;;;;;;;;;;5043998;28;20281;-82
2021/01/28 01:46:24;;;;;;;2.20;1.20;;;;;;;;;;5035724;28;20262;-83
2021/01/28 01:48:53;;;;;;;2.10;1.42;;;;;;;;;;5037928;28;20206;-83
2021/01/28 01:51:22;;;;;;;3.35;1.65;;;;;;;;;;5048662;28;20206;-81
2021/01/28 01:53:50;;;;;;;1.50;1.10;;;;;;;;;;5038868;28;20190;-81
2021/01/28 01:56:21;;;;;;;1.85;1.20;;;;;;;;;;5031105;28;20189;-81
2021/01/28 01:59:06;;;;;;;2.45;1.30;;;;;;;;;;5048063;28;20202;-81
2021/01/28 02:01:38;;;;;;;1.38;1.27;;;;;;;;;;5024105;28;20189;-81
2021/01/28 02:04:06;;;;;;;1.15;1.05;;;;;;;;;;5044807;28;20182;-82
2021/01/28 02:06:35;;;;;;;1.50;1.00;;;;;;;;;;5034347;28;20170;-82
2021/01/28 02:09:02;;;;;;;2.83;1.38;;;;;;;;;;5034832;28;20647;-82
2021/01/28 02:11:28;;;;;;;2.05;1.00;;;;;;;;;;5039228;28;20261;-82
2021/01/28 02:13:56;;;;;;;1.80;1.30;;;;;;;;;;5027684;28;20241;-82
2021/01/28 02:16:23;;;;;;;1.85;1.10;;;;;;;;;;5030973;28;20193;-81
2021/01/28 02:18:49;;;;;;;2.38;1.30;;;;;;;;;;5040628;28;20215;-81
2021/01/28 02:21:24;;;;;;;3.42;1.40;;;;;;;;;;5035588;28;20230;-82
2021/01/28 02:23:56;;;;;;;2.00;1.55;;;;;;;;;;5033246;28;20216;-81
2021/01/28 02:26:22;;;;;;;4.30;1.92;;;;;;;;;;5045740;28;20192;-82
2021/01/28 02:28:48;;;;;;;4.45;2.13;;;;;;;;;;5044231;28;20210;-82
2021/01/28 02:31:14;;;;;;;3.20;2.13;;;;;;;;;;5043000;28;20184;-83
2021/01/28 02:33:43;;;;;;;5.72;2.30;;;;;;;;;;5019709;28;20457;-82
2021/01/28 02:36:10;;;;;;;3.55;2.72;;;;;;;;;;5032167;28;20201;-83
2021/01/28 02:38:36;;;;;;;4.43;2.55;;;;;;;;;;5014911;28;20213;-83
2021/01/28 02:41:03;;;;;;;4.20;2.63;;;;;;;;;;5023396;28;20201;-82
2021/01/28 02:43:29;;;;;;;5.07;3.15;;;;;;;;;;5006910;28;20185;-83
2021/01/28 02:46:21;;;;;;;6.07;4.05;;;;;;;;;;5021983;28;20175;-84
2021/01/28 02:48:50;;;;;;;6.85;3.53;;;;;;;;;;5027357;28;20278;-83
2021/01/28 02:51:16;;;;;;;5.20;3.80;;;;;;;;;;5021653;28;20198;-82
2021/01/28 02:53:44;;;;;;;10.43;4.03;;;;;;;;;;5018068;28;20191;-84
2021/01/28 02:56:10;;;;;;;9.65;3.75;;;;;;;;;;5031912;28;20550;-83
2021/01/28 02:58:36;;;;;;;13.68;5.15;;;;;;;;;;5030280;28;20225;-84
2021/01/28 03:01:03;;;;;;;9.68;5.10;;;;;;;;;;5014325;28;20177;-84
2021/01/28 03:03:29;;;;;;;10.60;5.70;;;;;;;;;;5022864;28;20178;-84
2021/01/28 03:05:55;;;;;;;10.60;5.23;;;;;;;;;;5035602;28;20196;-83
2021/01/28 03:08:22;;;;;;;10.68;5.50;;;;;;;;;;5032486;28;20476;-84
2021/01/28 03:10:48;;;;;;;9.68;5.55;;;;;;;;;;5041948;28;20185;-84
2021/01/28 03:13:14;;;;;;;12.02;6.60;;;;;;;;;;5032375;28;20182;-85
2021/01/28 03:15:40;;;;;;;10.35;5.78;;;;;;;;;;5036935;28;20205;-83
2021/01/28 03:18:07;;;;;;;10.10;4.97;;;;;;;;;;5020618;28;20690;-84
2021/01/28 03:20:33;;;;;;;9.52;4.90;;;;;;;;;;5016453;28;20448;-83
2021/01/28 03:22:59;;;;;;;12.68;5.53;;;;;;;;;;5036833;28;20181;-84
2021/01/28 03:25:25;;;;;;;11.27;6.13;;;;;;;;;;5013427;28;20183;-82
2021/01/28 03:27:52;;;;;;;11.02;6.32;;;;;;;;;;5025367;28;20182;-85
2021/01/28 03:30:23;;;;;;;13.70;6.93;;;;;;;;;;5033783;28;20182;-83
2021/01/28 03:32:49;;;;;;;12.02;6.07;;;;;;;;;;5028694;28;20233;-83
2021/01/28 03:35:16;;;;;;;13.60;6.30;;;;;;;;;;5028714;28;20190;-82
2021/01/28 03:37:42;;;;;;;11.38;6.68;;;;;;;;;;5049812;28;20480;-81
2021/01/28 03:40:08;;;;;;;12.05;6.22;;;;;;;;;;5048598;28;20208;-83
2021/01/28 03:42:34;;;;;;;16.40;6.30;;;;;;;;;;5039240;28;20182;-82
2021/01/28 03:45:00;;;;;;;9.32;5.13;;;;;;;;;;5051095;28;20192;-86
2021/01/28 03:47:27;;;;;;;8.93;5.30;;;;;;;;;;5034062;28;20247;-84
2021/01/28 03:49:53;;;;;;;9.10;4.90;;;;;;;;;;5046832;28;20480;-82
2021/01/28 03:52:19;;;;;;;11.83;5.00;;;;;;;;;;5040632;28;20173;-82
2021/01/28 03:54:45;;;;;;;9.40;5.75;;;;;;;;;;5040324;28;20472;-83
2021/01/28 03:57:11;;;;;;;12.27;6.07;;;;;;;;;;5050640;28;20183;-85
2021/01/28 03:59:37;;;;;;;8.68;5.47;;;;;;;;;;5035124;28;20229;-86
2021/01/28 04:02:03;;;;;;;8.40;5.05;;;;;;;;;;5046900;28;20185;-84
2021/01/28 04:04:29;;;;;;;11.37;5.67;;;;;;;;;;5037574;28;20182;-82
2021/01/28 04:06:55;;;;;;;11.30;4.80;;;;;;;;;;5039692;28;20441;-87
2021/01/28 04:09:21;;;;;;;8.83;4.60;;;;;;;;;;5041278;28;20466;-83
2021/01/28 04:11:47;;;;;;;6.83;4.43;;;;;;;;;;5039996;28;20475;-84
2021/01/28 04:14:13;;;;;;;10.10;4.97;;;;;;;;;;5039488;28;20471;-84
2021/01/28 04:16:39;;;;;;;5.85;4.25;;;;;;;;;;5037749;28;20962;-83
2021/01/28 04:19:05;;;;;;;7.13;4.10;;;;;;;;;;5046321;28;20292;-82
2021/01/28 04:21:31;;;;;;;9.30;5.00;;;;;;;;;;5036224;28;20182;-84
2021/01/28 04:23:57;;;;;;;6.80;4.40;;;;;;;;;;5054716;28;20213;-83
2021/01/28 04:26:23;;;;;;;5.90;4.15;;;;;;;;;;5045294;28;20516;-83
2021/01/28 04:28:49;;;;;;;5.55;3.78;;;;;;;;;;5048144;28;20250;-82
2021/01/28 04:31:15;;;;;;;5.63;3.47;;;;;;;;;;5045408;28;20515;-82
2021/01/28 04:33:41;;;;;;;4.55;3.30;;;;;;;;;;5022420;28;20268;-83
2021/01/28 04:36:07;;;;;;;5.10;2.87;;;;;;;;;;5034427;28;20717;-82
2021/01/28 04:38:33;;;;;;;5.10;3.00;;;;;;;;;;5033212;28;20945;-83
2021/01/28 04:41:05;;;;;;;5.03;2.53;;;;;;;;;;5029413;28;20651;-83
2021/01/28 04:43:32;;;;;;;6.78;3.00;;;;;;;;;;5036410;28;20179;-81
2021/01/28 04:46:03;;;;;;;2.85;2.65;;;;;;;;;;5029242;28;20175;-81
2021/01/28 04:48:31;;;;;;;3.03;2.28;;;;;;;;;;5021945;28;20182;-82
2021/01/28 04:50:57;;;;;;;3.85;2.13;;;;;;;;;;5021768;28;20198;-82
2021/01/28 04:53:31;;;;;;;3.08;1.65;;;;;;;;;;5020673;28;20193;-82
2021/01/28 04:55:57;;;;;;;3.00;2.17;;;;;;;;;;5034032;28;20639;-84
2021/01/28 04:58:23;;;;;;;3.13;1.65;;;;;;;;;;5030639;28;20240;-82
2021/01/28 05:00:49;;;;;;;5.07;1.93;;;;;;;;;;5027478;28;20180;-82
2021/01/28 05:03:18;;;;;;;6.57;2.03;;;;;;;;;;5036804;28;20440;-82
2021/01/28 05:05:44;;;;;;;4.65;1.92;;;;;;;;;;5033661;28;20526;-82
2021/01/28 05:08:10;;;;;;;3.10;1.65;;;;;;;;;;5029856;28;20217;-82
2021/01/28 05:10:36;;;;;;;4.50;1.93;;;;;;;;;;5030120;28;20190;-81
2021/01/28 05:13:03;;;;;;;7.70;2.30;;;;;;;;;;5040185;28;20436;-82
2021/01/28 05:15:36;;;;;;;3.65;1.52;;;;;;;;;;5019097;28;20429;-82
2021/01/28 05:18:18;;;;;;;2.05;1.35;;;;;;;;;;5016282;28;20214;-83
2021/01/28 05:20:45;;;;;;;4.00;1.45;;;;;;;;;;5017437;28;20249;-83
2021/01/28 05:23:43;;;;;;;2.70;1.20;;;;;;;;;;5038823;28;20547;-82
2021/01/28 05:26:27;;;;;;;3.10;1.20;;;;;;;;;;4934905;29;20200;-82
2021/01/28 05:28:53;;;;;;;1.15;1.05;;;;;;;;;;4926581;29;20217;-82
2021/01/28 05:31:26;;;;;;;2.15;1.17;;;;;;;;;;4938119;29;20177;-82
2021/01/28 05:33:51;;;;;;;4.43;1.30;;;;;;;;;;4943450;29;20216;-81
2021/01/28 05:36:19;;;;;;;2.97;1.27;;;;;;;;;;4945302;29;20196;-82
2021/01/28 05:38:47;;;;;;;6.60;1.45;;;;;;;;;;4945193;28;20483;-82
2021/01/28 05:41:26;;;;;;;3.65;1.10;;;;;;;;;;4940192;29;20208;-83
2021/01/28 05:43:53;;;;;;;7.90;1.42;;;;;;;;;;4940523;29;20193;-83
2021/01/28 05:46:27;;;;;;;8.25;1.77;;;;;;;;;;4942403;29;20191;-81
2021/01/28 05:49:04;;;;;;;5.82;1.55;;;;;;;;;;4943172;28;20193;-83
2021/01/28 05:51:43;;;;;;;3.55;1.17;;;;;;;;;;4941178;29;20221;-82
2021/01/28 05:54:20;;;;;;;6.20;1.40;;;;;;;;;;4943898;29;20200;-82
2021/01/28 05:57:01;;;;;;;1.35;0.90;;;;;;;;;;4945188;29;20264;-83
2021/01/28 05:59:41;;;;;;;1.45;0.75;;;;;;;;;;4924041;29;20794;-82
2021/01/28 06:02:19;;;;;;;4.57;0.90;;;;;;;;;;5007868;28;20181;-81
2021/01/28 06:04:52;;;;;;;3.58;0.90;;;;;;;;;;5037161;28;20182;-81
2021/01/28 06:07:36;;;;;;;5.53;1.17;;;;;;;;;;5031697;28;20184;-82
2021/01/28 06:10:08;;;;;;;3.10;0.90;;;;;;;;;;5028912;28;20182;-81
2021/01/28 06:12:53;;;;;;;1.08;0.70;;;;;;;;;;5034043;28;20271;-83
2021/01/28 06:15:22;;;;;;;1.48;0.75;;;;;;;;;;5038927;28;20190;-83
2021/01/28 06:18:07;;;;;;;1.88;0.70;;;;;;;;;;5039792;28;20344;-82
2021/01/28 06:21:05;;;;;;;0.82;0.60;;;;;;;;;;5039877;28;20178;-83
2021/01/28 06:23:41;;;;;;;0.60;0.50;;;;;;;;;;4970880;28;20659;-81
2021/01/28 06:26:10;;;;;;;1.00;0.80;;;;;;;;;;4963750;28;20238;-82
2021/01/28 06:28:45;;;;;;;0.70;0.68;;;;;;;;;;4968340;28;20188;-81
2021/01/28 06:31:29;;;;;;;1.17;0.90;;;;;;;;;;4967259;28;20191;-81
2021/01/28 06:33:57;;;;;;;1.77;0.70;;;;;;;;;;4970205;28;20195;-82
2021/01/28 06:36:46;;;;;;;1.45;0.50;;;;;;;;;;4951122;28;20236;-81
2021/01/28 06:39:14;;;;;;;1.15;0.70;;;;;;;;;;4965486;28;20251;-83
2021/01/28 06:41:55;;;;;;;0.75;0.70;;;;;;;;;;4966723;28;20273;-81
2021/01/28 06:44:28;;;;;;;2.75;1.35;;;;;;;;;;4959724;28;20207;-83
2021/01/28 06:46:57;;;;;;;0.95;0.70;;;;;;;;;;4977827;28;20338;-87
2021/01/28 06:49:26;;;;;;;1.88;0.80;;;;;;;;;;4973409;28;20697;-83
2021/01/28 06:51:59;;;;;;;1.17;0.93;;;;;;;;;;4973839;28;20552;-85
2021/01/28 06:54:28;;;;;;;1.00;0.60;;;;;;;;;;4971575;28;20199;-84
2021/01/28 06:56:57;;;;;;;0.75;0.63;;;;;;;;;;4970630;28;20347;-84
2021/01/28 06:59:39;;;;;;;2.33;0.85;;;;;;;;;;5012551;28;20216;-81
2021/01/28 07:02:12;;;;;;;1.45;0.70;;;;;;;;;;5030422;28;20695;-84
2021/01/28 07:04:47;;;;;;;2.20;0.70;;;;;;;;;;5037785;28;20197;-83
2021/01/28 07:07:19;;;;;;;5.57;0.70;;;;;;;;;;5035301;28;20189;-82
2021/01/28 07:10:06;;;;;;;1.35;0.70;;;;;;;;;;5041467;28;20186;-84
2021/01/28 07:12:39;;;;;;;1.40;0.60;;;;;;;;;;5039548;28;20197;-85
2021/01/28 07:15:06;;;;;;;0.70;0.50;;;;;;;;;;5033170;28;20186;-82
2021/01/28 07:17:35;;;;;;;1.10;0.70;;;;;;;;;;5037844;28;20217;-85
2021/01/28 07:20:04;;;;;;;0.60;0.60;;;;;;;;;;5040589;28;20212;-81
2021/01/28 07:22:32;;;;;;;0.77;0.60;;;;;;;;;;5047686;28;20212;-83
2021/01/28 07:25:18;;;;;;;1.35;0.57;;;;;;;;;;5049228;28;20192;-82
2021/01/28 07:28:04;;;;;;;0.50;0.50;;;;;;;;;;5035243;28;20304;-83
2021/01/28 07:30:42;;;;;;;0.70;0.57;;;;;;;;;;5031077;28;20201;-84
2021/01/28 07:33:29;;;;;;;3.55;1.13;;;;;;;;;;5034615;28;20251;-83
2021/01/28 07:35:56;;;;;;;2.75;0.75;;;;;;;;;;4977164;28;20290;-84
2021/01/28 07:38:28;;;;;;;1.38;0.77;;;;;;;;;;4952759;28;20219;-84
2021/01/28 07:41:01;;;;;;;1.95;0.80;;;;;;;;;;4969187;28;20287;-84
2021/01/28 07:43:28;;;;;;;1.45;0.95;;;;;;;;;;4959758;28;20188;-87
2021/01/28 07:46:20;;;;;;;3.40;0.80;;;;;;;;;;4968418;28;20187;-84
2021/01/28 07:48:47;;;;;;;0.75;0.55;;;;;;;;;;4927932;29;20228;-84
2021/01/28 07:51:31;;;;;;;1.40;0.60;;;;;;;;;;4922734;29;20205;-84
2021/01/28 07:53:58;;;;;;;1.55;0.90;;;;;;;;;;4926564;29;20192;-85
2021/01/28 07:56:36;;;;;;;0.93;0.80;;;;;;;;;;4942191;29;20276;-82
2021/01/28 07:59:05;;;;;;;1.00;0.70;;;;;;;;;;4925954;29;20217;-84
2021/01/28 08:01:30;;;;;;;1.20;0.90;;;;;;;;;;4927386;29;20201;-86
2021/01/28 08:03:59;;;;;;;1.13;1.03;;;;;;;;;;4929923;29;20177;-90
2021/01/28 08:06:25;;;;;;;0.70;0.70;;;;;;;;;;4941413;29;20461;-86
2021/01/28 08:09:05;;;;;;;2.20;0.90;;;;;;;;;;4926955;29;20223;-85
2021/01/28 08:11:31;;;;;;;0.60;0.50;;;;;;;;;;4942676;29;20230;-89
2021/01/28 08:13:58;;;;;;;1.75;0.70;;;;;;;;;;4976410;28;20249;-88
2021/01/28 08:16:24;;;;;;;2.17;1.10;;;;;;;;;;4982173;28;20187;-84
2021/01/28 08:19:06;;;;;;;0.70;0.70;;;;;;;;;;4983374;28;20295;-89
2021/01/28 08:21:33;;;;;;;1.25;1.15;;;;;;;;;;4983599;28;20227;-89
2021/01/28 08:24:09;;;;;;;0.60;0.55;;;;;;;;;;4963481;28;20286;-90
2021/01/28 08:26:38;;;;;;;1.50;0.77;;;;;;;;;;5011943;28;20197;-86
2021/01/28 08:29:04;;;;;;;1.02;0.60;;;;;;;;;;5035804;28;20178;-85
2021/01/28 08:31:39;;;;;;;0.60;0.60;;;;;;;;;;5010757;28;20217;-88
2021/01/28 08:34:07;;;;;;;1.27;0.98;;;;;;;;;;5038533;28;20173;-86
2021/01/28 08:36:42;;;;;;;0.70;0.60;;;;;;;;;;5035950;28;20212;-89
2021/01/28 08:39:13;;;;;;;0.60;0.60;;;;;;;;;;5037673;28;20205;-89
2021/01/28 08:41:40;;;;;;;1.13;0.57;;;;;;;;;;5033764;28;20181;-89
2021/01/28 08:44:07;;;;;;;0.60;0.60;;;;;;;;;;5043119;28;20256;-87
2021/01/28 08:46:34;;;;;;;0.80;0.70;;;;;;;;;;5031060;28;20181;-87
2021/01/28 08:49:08;;;;;;;0.60;0.50;;;;;;;;;;5034923;28;20251;-90
2021/01/28 08:51:40;;;;;;;1.10;0.60;;;;;;;;;;5041141;28;20185;-86
2021/01/28 08:54:17;;;;;;;0.95;0.70;;;;;;;;;;5037097;28;20277;-86
2021/01/28 08:56:43;;;;;;;0.80;0.70;;;;;;;;;;5028525;28;20188;-85
2021/01/28 08:59:13;;;;;;;0.60;0.60;;;;;;;;;;5053521;28;20312;-86
2021/01/28 09:01:41;;;;;;;0.60;0.60;;;;;;;;;;5045522;28;20182;-85
2021/01/28 09:04:12;;;;;;;1.95;0.55;;;;;;;;;;5043949;28;20178;-87
2021/01/28 09:06:48;;;;;;;1.33;0.63;;;;;;;;;;5037142;28;20184;-87
2021/01/28 09:09:20;;;;;;;0.50;0.50;;;;;;;;;;5038907;28;20213;-85
2021/01/28 09:11:47;;;;;;;1.73;0.70;;;;;;;;;;5039498;28;20345;-87
2021/01/28 09:14:23;;;;;;;0.68;0.63;;;;;;;;;;5032991;28;20178;-85
2021/01/28 09:16:56;;;;;;;1.00;0.77;;;;;;;;;;5045881;28;20209;-86
2021/01/28 09:19:23;;;;;;;3.05;0.70;;;;;;;;;;5041171;28;20348;-88
2021/01/28 09:21:52;;;;;;;1.58;0.60;;;;;;;;;;5031208;28;20174;-92
2021/01/28 09:24:28;;;;;;;0.90;0.80;;;;;;;;;;5037393;28;20197;-91
2021/01/28 09:27:05;;;;;;;0.88;0.55;;;;;;;;;;5036769;28;20189;-88
2021/01/28 09:29:33;;;;;;;0.60;0.60;;;;;;;;;;5030536;28;20190;-85
2021/01/28 09:32:07;;;;;;;0.60;0.60;;;;;;;;;;5040255;28;20282;-89
2021/01/28 09:34:33;;;;;;;0.60;0.60;;;;;;;;;;5042301;28;20669;-88
2021/01/28 09:37:04;;;;;;;0.60;0.60;;;;;;;;;;5047394;28;20185;-89
2021/01/28 09:39:31;;;;;;;1.25;0.73;;;;;;;;;;5042142;28;20201;-88
2021/01/28 09:42:09;;;;;;;0.80;0.60;;;;;;;;;;5038643;28;20182;-88
2021/01/28 09:44:37;;;;;;;1.63;0.60;;;;;;;;;;5048925;28;20173;-88
2021/01/28 09:47:20;;;;;;;1.33;0.60;;;;;;;;;;5045332;28;20186;-87
2021/01/28 09:49:56;;;;;;;1.23;0.70;;;;;;;;;;5052600;28;20182;-88
2021/01/28 09:52:30;;;;;;;0.75;0.60;;;;;;;;;;5042423;28;20265;-90
2021/01/28 09:54:57;;;;;;;1.05;0.57;;;;;;;;;;5039656;28;20184;-90
2021/01/28 09:57:24;;;;;;;0.50;0.50;;;;;;;;;;5049934;28;20435;-91
2021/01/28 09:59:50;;;;;;;0.60;0.50;;;;;;;;;;5034764;28;20220;-90
2021/01/28 10:02:42;;;;;;;0.63;0.60;;;;;;;;;;5027671;28;20182;-88
2021/01/28 10:05:09;;;;;;;1.08;0.60;;;;;;;;;;5038359;28;20212;-88
2021/01/28 10:07:35;;;;;;;2.92;0.90;;;;;;;;;;5055487;28;20551;-91
2021/01/28 10:10:02;;;;;;;0.60;0.50;;;;;;;;;;5033444;28;20185;-89
2021/01/28 10:12:28;;;;;;;1.20;0.68;;;;;;;;;;5035333;28;20429;-89
2021/01/28 10:14:55;;;;;;;0.90;0.70;;;;;;;;;;5051247;28;20273;-89
2021/01/28 10:17:21;;;;;;;2.03;0.75;;;;;;;;;;5038781;28;20212;-89
2021/01/28 10:19:47;;;;;;;1.05;0.63;;;;;;;;;;5029256;28;20210;-89
2021/01/28 10:22:15;;;;;;;1.02;0.80;;;;;;;;;;5043482;28;20179;-88
2021/01/28 10:24:41;;;;;;;1.10;0.80;;;;;;;;;;5037277;28;20187;-89
2021/01/28 10:27:07;;;;;;;4.43;0.80;;;;;;;;;;5033422;28;20244;-87
2021/01/28 10:29:33;;;;;;;0.65;0.60;;;;;;;;;;5045947;28;20233;-88
2021/01/28 10:31:59;;;;;;;2.53;1.03;;;;;;;;;;5049076;28;20249;-88
2021/01/28 10:34:25;;;;;;;2.03;1.00;;;;;;;;;;5040842;28;21255;-87
2021/01/28 10:36:51;;;;;;;1.60;0.90;;;;;;;;;;5038609;28;20183;-90
2021/01/28 10:39:18;;;;;;;1.15;0.70;;;;;;;;;;5034040;28;20494;-86
2021/01/28 10:41:47;;;;;;;1.70;0.80;;;;;;;;;;5032433;28;20207;-87
2021/01/28 10:44:13;;;;;;;1.15;0.98;;;;;;;;;;5042756;28;20277;-87
2021/01/28 10:46:41;;;;;;;0.87;0.80;;;;;;;;;;5044821;28;20182;-87
2021/01/28 10:49:07;;;;;;;6.22;1.27;;;;;;;;;;5044824;28;20435;-86
2021/01/28 10:51:33;;;;;;;1.65;1.05;;;;;;;;;;5036296;28;20265;-87
2021/01/28 10:53:59;;;;;;;3.03;1.10;;;;;;;;;;5033971;28;20183;-89
2021/01/28 10:56:25;;;;;;;3.08;1.17;;;;;;;;;;5028049;28;20197;-88
2021/01/28 10:58:52;;;;;;;3.30;1.20;;;;;;;;;;5044589;28;20203;-86
2021/01/28 11:01:18;;;;;;;1.05;0.85;;;;;;;;;;5047145;28;20238;-89
2021/01/28 11:03:46;;;;;;;1.67;0.90;;;;;;;;;;5040454;28;20265;-88
2021/01/28 11:06:12;;;;;;;4.45;1.10;;;;;;;;;;5034672;28;20171;-89
2021/01/28 11:08:38;;;;;;;2.88;1.00;;;;;;;;;;5031675;28;20214;-88
2021/01/28 11:11:04;;;;;;;3.45;1.23;;;;;;;;;;5047300;28;20189;-86
2021/01/28 11:13:30;;;;;;;3.17;0.98;;;;;;;;;;5054230;28;20202;-88
2021/01/28 11:15:56;;;;;;;1.42;0.80;;;;;;;;;;5041261;28;20726;-87
2021/01/28 11:18:23;;;;;;;2.00;1.00;;;;;;;;;;5052138;28;20203;-88
2021/01/28 11:20:49;;;;;;;2.72;0.90;;;;;;;;;;5035408;28;20447;-88
2021/01/28 11:23:15;;;;;;;4.43;1.20;;;;;;;;;;5030544;28;20265;-87
2021/01/28 11:25:41;;;;;;;1.58;0.88;;;;;;;;;;5039186;28;20203;-86
2021/01/28 11:28:07;;;;;;;3.63;1.00;;;;;;;;;;5040509;28;20182;-87
2021/01/28 11:30:34;;;;;;;2.08;1.15;;;;;;;;;;5042404;28;20170;-89
2021/01/28 11:33:00;;;;;;;1.58;1.05;;;;;;;;;;5052289;28;20242;-87
2021/01/28 11:35:30;;;;;;;5.10;0.90;;;;;;;;;;5033227;28;20570;-89
2021/01/28 11:37:56;;;;;;;2.88;0.80;;;;;;;;;;5043874;28;20478;-89
2021/01/28 11:40:27;;;;;;;3.53;1.07;;;;;;;;;;5043892;28;20241;-88
2021/01/28 11:42:53;;;;;;;1.40;0.90;;;;;;;;;;5041504;28;20421;-88
2021/01/28 11:45:21;;;;;;;2.22;1.00;;;;;;;;;;5041058;28;20253;-89
2021/01/28 11:47:47;;;;;;;4.03;1.63;;;;;;;;;;5041176;28;20245;-88
2021/01/28 11:50:14;;;;;;;1.05;0.85;;;;;;;;;;5041460;28;20173;-90
2021/01/28 11:52:40;;;;;;;1.15;0.80;;;;;;;;;;5057229;28;20190;-88
2021/01/28 11:55:07;;;;;;;3.83;1.15;;;;;;;;;;5040938;28;20223;-87
2021/01/28 11:57:32;;;;;;;2.50;0.80;;;;;;;;;;5036324;28;20206;-86
2021/01/28 11:59:58;;;;;;;1.50;0.70;;;;;;;;;;5034789;28;20189;-88
2021/01/28 12:02:24;;;;;;;0.90;0.80;;;;;;;;;;5029446;28;20437;-89
2021/01/28 12:04:50;;;;;;;1.00;0.70;;;;;;;;;;5048115;28;20212;-88
2021/01/28 12:07:17;;;;;;;1.10;0.93;;;;;;;;;;5045633;28;20420;-89
2021/01/28 12:09:43;;;;;;;0.80;0.80;;;;;;;;;;5039393;28;20236;-89
2021/01/28 12:12:09;;;;;;;1.58;0.70;;;;;;;;;;5050531;28;20257;-88
2021/01/28 12:14:35;;;;;;;2.25;0.90;;;;;;;;;;5040726;28;20200;-90
2021/01/28 12:17:01;;;;;;;2.15;0.90;;;;;;;;;;5042724;28;20217;-87
2021/01/28 12:19:28;;;;;;;2.30;0.90;;;;;;;;;;5042294;28;20217;-90
2021/01/28 12:21:54;;;;;;;1.02;0.95;;;;;;;;;;5035293;28;20426;-85
2021/01/28 12:24:19;;;;;;;1.17;0.80;;;;;;;;;;5039346;28;20186;-89
2021/01/28 12:26:53;;;;;;;1.43;0.70;;;;;;;;;;5032476;28;20264;-89
2021/01/28 12:29:19;;;;;;;1.85;0.90;;;;;;;;;;5044527;28;20505;-88
2021/01/28 12:31:45;;;;;;;1.47;0.87;;;;;;;;;;5039741;28;20229;-86
2021/01/28 12:34:11;;;;;;;1.70;0.80;;;;;;;;;;5034067;28;20446;-86
2021/01/28 12:36:37;;;;;;;1.20;0.80;;;;;;;;;;5041993;28;20182;-89
2021/01/28 12:39:04;;;;;;;1.38;0.90;;;;;;;;;;5049420;28;20481;-88
2021/01/28 12:41:30;;;;;;;1.83;0.70;;;;;;;;;;5027639;28;20196;-86
2021/01/28 12:43:56;;;;;;;0.70;0.70;;;;;;;;;;5033441;28;20236;-85
2021/01/28 12:46:22;;;;;;;2.25;0.80;;;;;;;;;;5041008;28;20639;-81
2021/01/28 12:48:48;;;;;;;1.10;1.00;;;;;;;;;;5042104;28;20204;-84
2021/01/28 12:51:14;;;;;;;1.13;0.60;;;;;;;;;;5036160;28;20528;-88
2021/01/28 12:53:40;;;;;;;1.07;0.73;;;;;;;;;;5033428;28;20477;-89
2021/01/28 12:56:06;;;;;;;1.77;0.80;;;;;;;;;;5040756;28;20435;-85
2021/01/28 12:58:32;;;;;;;1.63;0.90;;;;;;;;;;5045824;28;20551;-88
2021/01/28 13:00:58;;;;;;;3.58;0.80;;;;;;;;;;5040183;28;20244;-89
2021/01/28 13:03:24;;;;;;;1.15;0.80;;;;;;;;;;5051198;28;20247;-84
2021/01/28 13:05:50;;;;;;;2.40;0.95;;;;;;;;;;5033714;28;20185;-86
2021/01/28 13:08:16;;;;;;;1.20;0.83;;;;;;;;;;5055597;28;20190;-84
2021/01/28 13:10:42;;;;;;;0.90;0.70;;;;;;;;;;5045480;28;20449;-85
2021/01/28 13:13:08;;;;;;;2.05;0.70;;;;;;;;;;5034389;28;20180;-85
2021/01/28 13:15:35;;;;;;;2.22;0.80;;;;;;;;;;5035443;28;20188;-86
2021/01/28 13:18:02;;;;;;;2.33;0.80;;;;;;;;;;5037292;28;20210;-85
2021/01/28 13:20:31;;;;;;;1.60;0.85;;;;;;;;;;5034049;28;20182;-84
2021/01/28 13:22:57;;;;;;;0.90;0.75;;;;;;;;;;5055847;28;20174;-82
2021/01/28 13:25:23;;;;;;;1.80;0.90;;;;;;;;;;5041178;28;20205;-86
2021/01/28 13:27:49;;;;;;;2.30;0.83;;;;;;;;;;5037897;28;20643;-83
2021/01/28 13:30:15;;;;;;;1.63;1.00;;;;;;;;;;5053980;28;20422;-84
2021/01/28 13:32:41;;;;;;;2.05;0.88;;;;;;;;;;5035064;28;20476;-81
2021/01/28 13:35:09;;;;;;;1.60;0.70;;;;;;;;;;5024602;28;20179;-85
2021/01/28 13:37:35;;;;;;;3.15;1.13;;;;;;;;;;5039728;28;20202;-83
2021/01/28 13:40:01;;;;;;;3.10;0.90;;;;;;;;;;5045397;28;20184;-86
2021/01/28 13:42:27;;;;;;;1.63;1.20;;;;;;;;;;5038649;28;20216;-85
2021/01/28 13:44:53;;;;;;;1.23;0.95;;;;;;;;;;5037671;28;20434;-88
2021/01/28 13:47:20;;;;;;;2.00;0.95;;;;;;;;;;5028163;28;20669;-86
2021/01/28 13:49:46;;;;;;;1.70;1.55;;;;;;;;;;5042109;28;20183;-86
2021/01/28 13:52:12;;;;;;;2.65;1.02;;;;;;;;;;5026027;28;20182;-89
2021/01/28 13:54:39;;;;;;;3.60;1.40;;;;;;;;;;5039795;28;20338;-83
2021/01/28 13:57:05;;;;;;;2.47;0.95;;;;;;;;;;5051163;28;20195;-88
2021/01/28 13:59:31;;;;;;;2.72;0.90;;;;;;;;;;5039868;28;20233;-87
2021/01/28 14:01:57;;;;;;;4.53;1.10;;;;;;;;;;5030525;28;20189;-84
2021/01/28 14:04:23;;;;;;;1.95;0.80;;;;;;;;;;5037825;28;20213;-86
2021/01/28 14:06:49;;;;;;;3.15;1.00;;;;;;;;;;5033440;28;20177;-86
2021/01/28 14:09:15;;;;;;;3.30;1.07;;;;;;;;;;5034960;28;20189;-86
2021/01/28 14:11:41;;;;;;;2.63;1.17;;;;;;;;;;5048880;28;20575;-87
2021/01/28 14:14:07;;;;;;;3.23;1.20;;;;;;;;;;5029413;28;20189;-85
2021/01/28 14:16:33;;;;;;;1.35;0.80;;;;;;;;;;5029374;28;20450;-86
2021/01/28 14:18:59;;;;;;;3.57;1.53;;;;;;;;;;5045660;28;20217;-87
2021/01/28 14:21:25;;;;;;;1.30;1.00;;;;;;;;;;5033664;28;20452;-88
2021/01/28 14:23:51;;;;;;;4.90;1.37;;;;;;;;;;5032504;28;20451;-86
2021/01/28 14:26:17;;;;;;;2.20;1.25;;;;;;;;;;5026951;28;20554;-89
2021/01/28 14:28:43;;;;;;;2.30;0.90;;;;;;;;;;5030590;28;20274;-86
2021/01/28 14:31:09;;;;;;;1.67;1.00;;;;;;;;;;5054963;28;20443;-89
2021/01/28 14:33:35;;;;;;;2.92;0.95;;;;;;;;;;5013334;28;20422;-88
2021/01/28 14:36:01;;;;;;;2.10;0.82;;;;;;;;;;4996492;28;20182;-88
2021/01/28 14:38:27;;;;;;;2.73;1.10;;;;;;;;;;5010681;28;20672;-84
2021/01/28 14:40:53;;;;;;;5.70;1.25;;;;;;;;;;5002894;28;20434;-88
2021/01/28 14:43:19;;;;;;;3.28;1.23;;;;;;;;;;4995650;28;20302;-85
2021/01/28 14:45:45;;;;;;;2.72;0.88;;;;;;;;;;5003962;28;20209;-85
2021/01/28 14:48:11;;;;;;;1.73;1.15;;;;;;;;;;5019465;28;20192;-85
2021/01/28 14:50:37;;;;;;;5.47;1.00;;;;;;;;;;5003262;28;20186;-85
2021/01/28 14:53:03;;;;;;;4.65;1.20;;;;;;;;;;4995257;28;20429;-84